Your Location
IP:
Country:
City:
Region:
latitude:
Longitude:
Time Zone:
Enroute Flights
XOJ546
TRS627
AAL1596
N715WE
WJA1754
N5293Y
SWA1596
N352WT
N469CP
SWA4357
Weather
KSNA 291953Z 22007KT 10SM FEW150 BKN300 28/14 A3000 RMK AO2 SLP158 T02830144